Time;durP1;ratioP1;P1;durP2;ratioP2;P2;SDS_P1;SDS_P2;PMS_P1;PMS_P2;Temp;Humidity;BMP_temperature;BMP_pressure;BME280_temperature;BME280_humidity;BME280_pressure;Samples;Min_cycle;Max_cycle;Signal;HPM_P1;HPM_P2
2023/10/23 00:00:47;;;;;;;13.13;5.05;;;384.50;2329.60;;;;;;5051561;28;20029;-62
2023/10/23 00:03:13;;;;;;;8.70;3.88;;;384.50;2329.60;;;;;;5051210;28;20104;-62
2023/10/23 00:05:38;;;;;;;7.25;4.00;;;384.50;2329.60;;;;;;5050737;28;20029;-60
2023/10/23 00:08:04;;;;;;;6.85;3.83;;;384.60;2329.60;;;;;;5050906;28;20029;-63
2023/10/23 00:10:30;;;;;;;7.90;4.00;;;384.50;2329.60;;;;;;5050560;28;20032;-60
2023/10/23 00:12:56;;;;;;;8.98;3.72;;;384.50;2329.60;;;;;;5044244;28;20101;-61
2023/10/23 00:15:21;;;;;;;8.73;4.53;;;384.50;2329.60;;;;;;5037039;28;20029;-60
2023/10/23 00:17:47;;;;;;;13.70;5.35;;;384.50;2329.60;;;;;;5050880;28;20104;-60
2023/10/23 00:20:13;;;;;;;8.77;4.88;;;384.50;2329.60;;;;;;5050531;28;20376;-60
2023/10/23 00:22:38;;;;;;;8.88;4.03;;;384.40;2329.60;;;;;;5050993;28;20036;-61
2023/10/23 00:25:04;;;;;;;9.13;4.05;;;384.40;2329.60;;;;;;5051031;28;20104;-60
2023/10/23 00:27:30;;;;;;;6.10;3.75;;;384.40;2329.60;;;;;;5051253;28;20029;-61
2023/10/23 00:29:56;;;;;;;9.52;3.72;;;384.40;2329.60;;;;;;5050581;28;20017;-60
2023/10/23 00:32:22;;;;;;;8.60;4.25;;;384.30;2329.60;;;;;;5050652;28;20035;-61
2023/10/23 00:34:47;;;;;;;12.60;4.85;;;384.20;2329.60;;;;;;5050712;28;20023;-61
2023/10/23 00:37:13;;;;;;;6.78;3.67;;;384.20;2329.60;;;;;;5050618;28;20033;-60
2023/10/23 00:39:39;;;;;;;8.48;4.35;;;384.20;2329.60;;;;;;5050939;28;20079;-60
2023/10/23 00:42:05;;;;;;;10.23;4.22;;;384.10;2329.60;;;;;;5050793;28;20510;-61
2023/10/23 00:44:31;;;;;;;9.65;3.45;;;384.10;2329.60;;;;;;5042713;28;20037;-60
2023/10/23 00:46:56;;;;;;;9.30;4.30;;;384.30;2329.60;;;;;;5031578;28;20025;-60
2023/10/23 00:49:23;;;;;;;6.97;4.13;;;384.00;2329.60;;;;;;5048866;28;20025;-59
2023/10/23 00:51:49;;;;;;;7.45;3.95;;;384.00;2329.60;;;;;;5049872;28;20036;-61
2023/10/23 00:54:16;;;;;;;8.05;4.43;;;384.00;2329.60;;;;;;5050472;28;20025;-62
2023/10/23 00:56:41;;;;;;;7.50;4.20;;;384.00;2329.60;;;;;;5050638;28;20032;-63
2023/10/23 00:59:09;;;;;;;6.70;4.43;;;359.30;2329.60;;;;;;5050569;28;20017;-60
2023/10/23 01:01:36;;;;;;;10.18;3.50;;;359.00;2329.60;;;;;;5049970;28;20033;-62
2023/10/23 01:04:04;;;;;;;8.45;4.65;;;359.30;2329.60;;;;;;5050191;28;20028;-60
2023/10/23 01:06:31;;;;;;;7.03;3.90;;;359.30;2329.60;;;;;;5050319;28;20083;-60
2023/10/23 01:08:57;;;;;;;7.47;3.10;;;359.30;2329.60;;;;;;5049969;28;20017;-61
2023/10/23 01:11:23;;;;;;;8.32;4.22;;;359.20;2329.60;;;;;;5037029;28;20100;-60
2023/10/23 01:13:49;;;;;;;11.50;3.80;;;359.20;2329.60;;;;;;5050155;28;20067;-61
2023/10/23 01:16:15;;;;;;;6.65;4.03;;;359.30;2329.60;;;;;;5027477;28;20042;-61
2023/10/23 01:18:41;;;;;;;5.53;3.20;;;359.10;2329.60;;;;;;5036723;28;20086;-61
2023/10/23 01:21:07;;;;;;;9.52;3.72;;;359.00;2329.60;;;;;;5049850;28;20079;-58
2023/10/23 01:23:36;;;;;;;8.27;3.45;;;359.10;2329.60;;;;;;5023492;28;20021;-60
2023/10/23 01:26:02;;;;;;;9.88;3.42;;;359.10;2329.60;;;;;;5049578;28;20062;-62
2023/10/23 01:28:28;;;;;;;6.72;3.47;;;359.20;2329.60;;;;;;5050324;28;20278;-61
2023/10/23 01:30:53;;;;;;;7.90;3.38;;;359.30;2329.60;;;;;;5048919;28;20528;-62
2023/10/23 01:33:19;;;;;;;7.30;3.35;;;359.30;2329.60;;;;;;5049499;28;20024;-62
2023/10/23 01:35:45;;;;;;;8.15;3.78;;;359.30;2329.60;;;;;;5049521;28;20033;-59
2023/10/23 01:38:13;;;;;;;6.10;3.00;;;359.20;2329.60;;;;;;5049670;28;20154;-61
2023/10/23 01:40:39;;;;;;;6.93;3.20;;;359.30;2329.60;;;;;;5049770;28;20090;-61
2023/10/23 01:43:04;;;;;;;12.95;4.53;;;359.20;2329.60;;;;;;5049164;28;20025;-60
2023/10/23 01:45:30;;;;;;;6.75;2.92;;;359.20;2329.60;;;;;;5048528;28;20143;-60
2023/10/23 01:47:56;;;;;;;9.40;3.47;;;359.30;2329.60;;;;;;5026606;28;20025;-61
2023/10/23 01:50:23;;;;;;;7.78;3.33;;;359.30;2329.60;;;;;;5043279;28;20029;-61
2023/10/23 01:52:50;;;;;;;13.02;3.95;;;359.30;2329.60;;;;;;5049503;28;20500;-62
2023/10/23 01:55:16;;;;;;;10.75;3.38;;;384.00;2329.60;;;;;;5048559;28;20025;-61
2023/10/23 01:57:41;;;;;;;8.38;3.35;;;359.30;2329.60;;;;;;5049680;28;20128;-60
2023/10/23 02:00:10;;;;;;;7.40;3.30;;;359.30;2329.60;;;;;;5049064;28;20024;-60
2023/10/23 02:02:36;;;;;;;9.30;4.78;;;359.10;2329.60;;;;;;5047889;28;20025;-61
2023/10/23 02:05:02;;;;;;;6.10;3.35;;;358.80;2329.60;;;;;;5049179;28;20025;-60
2023/10/23 02:07:28;;;;;;;7.45;3.50;;;358.90;2329.60;;;;;;5048804;28;20486;-61
2023/10/23 02:09:56;;;;;;;7.93;4.00;;;359.00;2329.60;;;;;;5048860;28;20033;-60
2023/10/23 02:12:23;;;;;;;7.22;3.67;;;359.00;2329.60;;;;;;5048737;28;20039;-61
2023/10/23 02:14:52;;;;;;;8.05;4.03;;;359.00;2329.60;;;;;;5049189;28;20051;-61
2023/10/23 02:17:19;;;;;;;12.57;4.60;;;359.00;2329.60;;;;;;5044297;28;20029;-61
2023/10/23 02:19:45;;;;;;;8.20;4.20;;;359.00;2329.60;;;;;;5024660;28;20054;-62
2023/10/23 02:22:11;;;;;;;11.38;4.30;;;359.00;2329.60;;;;;;5049066;28;20032;-62
2023/10/23 02:24:38;;;;;;;6.97;3.85;;;358.90;2329.60;;;;;;5049030;28;20051;-62
2023/10/23 02:27:04;;;;;;;9.82;3.50;;;358.80;2329.60;;;;;;5048756;28;20032;-62
2023/10/23 02:29:30;;;;;;;5.72;3.38;;;358.80;2329.60;;;;;;5048855;28;20029;-62
2023/10/23 02:31:55;;;;;;;10.85;4.50;;;358.80;2329.60;;;;;;5048837;28;20024;-63
2023/10/23 02:34:21;;;;;;;6.57;3.75;;;358.80;2329.60;;;;;;5049103;28;20402;-61
2023/10/23 02:36:47;;;;;;;6.88;3.70;;;358.80;2329.60;;;;;;5048649;28;20486;-61
2023/10/23 02:39:13;;;;;;;9.18;3.95;;;358.90;2329.60;;;;;;5048841;28;20022;-61
2023/10/23 02:41:39;;;;;;;6.53;3.63;;;359.00;2329.60;;;;;;5048770;28;20045;-60
2023/10/23 02:44:05;;;;;;;7.60;3.28;;;359.00;2329.60;;;;;;5048708;28;20109;-61
2023/10/23 02:46:35;;;;;;;6.28;3.47;;;359.00;2329.60;;;;;;5048964;28;20382;-61
2023/10/23 02:49:02;;;;;;;7.25;3.20;;;359.00;2329.60;;;;;;5035463;28;20108;-60
2023/10/23 02:51:28;;;;;;;7.38;3.72;;;359.00;2329.60;;;;;;5048853;28;20025;-59
2023/10/23 02:53:54;;;;;;;7.40;3.25;;;359.00;2329.60;;;;;;5048134;28;20360;-61
2023/10/23 02:56:20;;;;;;;10.85;3.78;;;359.00;2329.60;;;;;;5032548;28;20056;-62
2023/10/23 02:58:45;;;;;;;5.90;3.58;;;359.00;2329.60;;;;;;5042671;28;20471;-60
2023/10/23 03:01:23;;;;;;;10.45;3.83;;;359.00;2329.60;;;;;;5048559;28;20047;-60
2023/10/23 03:03:49;;;;;;;9.88;3.70;;;359.00;2329.60;;;;;;5048003;28;20108;-61
2023/10/23 03:06:15;;;;;;;9.30;4.10;;;358.90;2329.60;;;;;;5049465;28;20027;-62
2023/10/23 03:08:41;;;;;;;8.30;4.50;;;358.90;2329.60;;;;;;5049918;28;20156;-60
2023/10/23 03:11:08;;;;;;;7.07;3.50;;;358.90;2329.60;;;;;;5049810;28;20053;-60
2023/10/23 03:13:34;;;;;;;7.75;3.58;;;358.90;2329.60;;;;;;5051097;28;20707;-66
2023/10/23 03:16:00;;;;;;;8.90;3.80;;;358.90;2329.60;;;;;;5054471;28;20065;-60
2023/10/23 03:18:26;;;;;;;6.45;3.40;;;358.80;2329.60;;;;;;5049832;28;20053;-63
2023/10/23 03:20:51;;;;;;;5.88;3.88;;;358.80;2329.60;;;;;;5044793;28;20471;-60
2023/10/23 03:23:17;;;;;;;8.40;3.67;;;358.70;2329.60;;;;;;5038588;28;20522;-62
2023/10/23 03:25:43;;;;;;;9.40;3.47;;;358.80;2329.60;;;;;;5035306;28;20029;-60
2023/10/23 03:28:09;;;;;;;8.07;3.42;;;358.80;2329.60;;;;;;5041270;28;20025;-60
2023/10/23 03:30:35;;;;;;;7.65;3.70;;;358.70;2329.60;;;;;;5046272;28;20049;-62
2023/10/23 03:33:00;;;;;;;9.02;3.13;;;358.70;2329.60;;;;;;5051989;28;20542;-60
2023/10/23 03:35:26;;;;;;;10.50;3.90;;;358.70;2329.60;;;;;;5051905;28;20119;-61
2023/10/23 03:37:52;;;;;;;7.05;3.50;;;358.70;2329.60;;;;;;5051711;28;20033;-61
2023/10/23 03:40:18;;;;;;;5.38;3.42;;;358.50;2329.60;;;;;;5040965;28;20049;-61
2023/10/23 03:42:44;;;;;;;8.23;3.05;;;358.50;2329.60;;;;;;5048235;28;20047;-61
2023/10/23 03:45:10;;;;;;;6.43;3.22;;;358.50;2329.60;;;;;;5052189;28;20542;-63
2023/10/23 03:47:35;;;;;;;8.07;4.78;;;358.50;2329.60;;;;;;5051245;28;20070;-62
2023/10/23 03:50:02;;;;;;;12.15;3.95;;;358.50;2329.60;;;;;;5051855;28;20116;-60
2023/10/23 03:52:28;;;;;;;8.63;4.15;;;358.50;2329.60;;;;;;5051353;28;20041;-59
2023/10/23 03:54:53;;;;;;;8.68;3.67;;;358.50;2329.60;;;;;;5051862;28;20032;-61
2023/10/23 03:57:19;;;;;;;7.28;3.42;;;358.50;2329.60;;;;;;5043158;28;20457;-59
2023/10/23 03:59:45;;;;;;;8.90;3.58;;;358.50;2329.60;;;;;;5029431;28;20021;-62
2023/10/23 04:02:10;;;;;;;8.25;3.95;;;358.50;2329.60;;;;;;5049292;28;20505;-60
2023/10/23 04:04:36;;;;;;;7.90;3.78;;;358.40;2329.60;;;;;;5051468;28;20024;-61
2023/10/23 04:07:02;;;;;;;8.32;3.38;;;358.40;2329.60;;;;;;5051601;28;20106;-61
2023/10/23 04:09:31;;;;;;;6.63;3.63;;;333.40;2329.60;;;;;;5048055;28;20025;-62
2023/10/23 04:11:57;;;;;;;9.73;4.32;;;358.50;2329.60;;;;;;5044086;28;20104;-60
2023/10/23 04:14:22;;;;;;;7.90;3.53;;;358.50;2329.60;;;;;;5043122;28;20115;-61
2023/10/23 04:16:48;;;;;;;7.88;3.15;;;358.50;2329.60;;;;;;5050810;28;20021;-61
2023/10/23 04:19:14;;;;;;;7.13;3.72;;;358.50;2329.60;;;;;;5051068;28;20049;-61
2023/10/23 04:21:39;;;;;;;7.72;4.55;;;358.40;2329.60;;;;;;5050965;28;20077;-61
2023/10/23 04:24:07;;;;;;;7.70;3.78;;;358.40;2329.60;;;;;;5032339;28;20479;-60
2023/10/23 04:26:32;;;;;;;7.65;3.95;;;358.40;2329.60;;;;;;5031838;28;20030;-61
2023/10/23 04:28:58;;;;;;;5.75;3.70;;;333.70;2329.60;;;;;;5030750;28;20067;-60
2023/10/23 04:31:24;;;;;;;8.43;4.20;;;333.70;2329.60;;;;;;5024050;28;20030;-60
2023/10/23 04:33:49;;;;;;;11.68;4.00;;;333.70;2329.60;;;;;;5044229;28;20051;-59
2023/10/23 04:36:15;;;;;;;9.07;4.07;;;333.70;2329.60;;;;;;5040150;28;20098;-60
2023/10/23 04:38:41;;;;;;;9.82;3.40;;;333.70;2329.60;;;;;;5032615;28;20413;-60
2023/10/23 04:41:07;;;;;;;6.20;3.53;;;333.70;2329.60;;;;;;5049506;28;20037;-61
2023/10/23 04:43:34;;;;;;;8.95;4.90;;;333.70;2329.60;;;;;;5050833;28;20021;-62
2023/10/23 04:46:00;;;;;;;10.82;4.65;;;333.70;2329.60;;;;;;5050408;28;20434;-61
2023/10/23 04:48:26;;;;;;;12.45;4.85;;;333.70;2329.60;;;;;;5050967;28;20032;-61
2023/10/23 04:50:51;;;;;;;8.77;3.90;;;333.70;2329.60;;;;;;5046086;28;20546;-61
2023/10/23 04:53:17;;;;;;;29.60;26.85;;;333.70;2329.60;;;;;;5039242;28;20052;-60
2023/10/23 04:55:43;;;;;;;9.68;5.50;;;333.70;2329.60;;;;;;5036572;28;20035;-59
2023/10/23 04:58:09;;;;;;;5.53;4.13;;;333.70;2329.60;;;;;;5050990;28;20036;-61
2023/10/23 05:00:36;;;;;;;9.77;6.15;;;358.50;2329.60;;;;;;5050138;28;20047;-60
2023/10/23 05:03:03;;;;;;;10.02;4.82;;;358.50;2329.60;;;;;;5050136;28;20109;-60
2023/10/23 05:05:30;;;;;;;9.05;5.10;;;358.50;2329.60;;;;;;5037715;28;20059;-61
2023/10/23 05:07:56;;;;;;;7.53;4.70;;;333.70;2329.60;;;;;;5027346;28;20101;-60
2023/10/23 05:10:21;;;;;;;8.48;4.20;;;333.50;2329.60;;;;;;5042369;28;20052;-61
2023/10/23 05:12:49;;;;;;;14.35;5.43;;;333.50;2329.60;;;;;;5050233;28;20025;-61
2023/10/23 05:15:16;;;;;;;10.05;4.60;;;333.40;2329.60;;;;;;5050321;28;20028;-62
2023/10/23 05:17:41;;;;;;;7.93;4.57;;;333.40;2329.60;;;;;;5050046;28;20446;-60
2023/10/23 05:20:08;;;;;;;9.60;4.60;;;333.50;2329.60;;;;;;5050137;28;20503;-61
2023/10/23 05:22:33;;;;;;;7.10;4.30;;;333.70;2329.60;;;;;;5036693;28;20033;-62
2023/10/23 05:25:00;;;;;;;12.55;7.30;;;333.70;2329.60;;;;;;5032019;28;20462;-63
2023/10/23 05:27:26;;;;;;;6.63;4.20;;;333.70;2329.60;;;;;;5048640;28;20071;-61
2023/10/23 05:29:51;;;;;;;8.68;4.05;;;358.40;2329.60;;;;;;5049221;28;20360;-61
2023/10/23 05:32:17;;;;;;;10.23;4.72;;;358.40;2329.60;;;;;;5035105;28;20028;-59
2023/10/23 05:34:44;;;;;;;9.68;4.10;;;358.40;2329.60;;;;;;5049857;28;20029;-60
2023/10/23 05:37:10;;;;;;;7.00;3.75;;;358.50;2329.60;;;;;;5022822;28;20047;-63
2023/10/23 05:39:36;;;;;;;9.68;3.97;;;358.50;2329.60;;;;;;5048963;28;20483;-63
2023/10/23 05:42:02;;;;;;;10.93;4.45;;;358.50;2329.60;;;;;;5037565;28;20144;-60
2023/10/23 05:44:27;;;;;;;16.17;4.88;;;358.60;2329.60;;;;;;5049453;28;20021;-59
2023/10/23 05:46:53;;;;;;;12.70;5.68;;;358.70;2329.60;;;;;;5049193;28;20033;-63
2023/10/23 05:49:19;;;;;;;15.20;5.03;;;358.70;2329.60;;;;;;5042849;28;20112;-62
2023/10/23 05:51:45;;;;;;;19.80;4.13;;;358.80;2329.60;;;;;;5047086;28;20391;-60
2023/10/23 05:54:10;;;;;;;10.05;4.20;;;358.80;2329.60;;;;;;5049726;28;20032;-61
2023/10/23 05:56:37;;;;;;;10.15;4.90;;;358.90;2329.60;;;;;;5049193;28;20033;-63
2023/10/23 05:59:03;;;;;;;10.05;3.35;;;359.00;2329.60;;;;;;5049330;28;20410;-63
2023/10/23 06:01:29;;;;;;;6.80;3.95;;;359.00;2329.60;;;;;;5032261;28;20045;-62
2023/10/23 06:03:55;;;;;;;7.63;4.15;;;359.10;2329.60;;;;;;5040326;28;20052;-63
2023/10/23 06:06:21;;;;;;;7.70;3.67;;;359.00;2329.60;;;;;;5049448;28;20474;-61
2023/10/23 06:08:47;;;;;;;6.47;3.50;;;358.90;2329.60;;;;;;5045510;28;20026;-62
2023/10/23 06:11:13;;;;;;;7.43;3.88;;;359.00;2329.60;;;;;;5032892;28;20036;-61
2023/10/23 06:13:39;;;;;;;10.85;4.63;;;359.00;2329.60;;;;;;5033198;28;20029;-63
2023/10/23 06:16:05;;;;;;;11.82;4.32;;;359.10;2329.60;;;;;;5040537;28;20116;-60
2023/10/23 06:18:32;;;;;;;12.63;4.78;;;359.20;2329.60;;;;;;5044612;28;20095;-64
2023/10/23 06:21:06;;;;;;;10.90;4.53;;;359.20;2329.60;;;;;;5037672;28;20041;-64
2023/10/23 06:23:37;;;;;;;5.70;3.10;;;359.30;2329.60;;;;;;5038298;28;20028;-64
2023/10/23 06:26:03;;;;;;;6.88;3.17;;;384.00;2329.60;;;;;;5039463;28;20029;-62
2023/10/23 06:28:29;;;;;;;8.32;3.78;;;384.10;2329.60;;;;;;5040831;28;20029;-64
2023/10/23 06:30:55;;;;;;;9.05;3.55;;;384.30;2329.60;;;;;;5040995;28;20036;-64
2023/10/23 06:33:21;;;;;;;7.47;4.45;;;384.30;2329.60;;;;;;5031678;28;20037;-61
2023/10/23 06:35:57;;;;;;;6.15;3.10;;;384.50;2329.60;;;;;;5042795;28;20100;-65
2023/10/23 06:38:22;;;;;;;6.90;3.80;;;384.60;2329.60;;;;;;5033239;28;20032;-60
2023/10/23 06:40:48;;;;;;;8.27;3.85;;;384.70;2329.60;;;;;;5027407;28;20029;-63
2023/10/23 06:43:14;;;;;;;10.75;5.07;;;384.90;2329.60;;;;;;5038905;28;20029;-61
2023/10/23 06:45:39;;;;;;;9.20;4.72;;;384.90;2329.60;;;;;;5035661;28;20067;-62
2023/10/23 06:48:05;;;;;;;9.48;5.20;;;409.60;2355.20;;;;;;5039137;28;20032;-64
2023/10/23 06:50:31;;;;;;;7.57;4.22;;;409.70;2355.20;;;;;;5052789;28;20037;-61
2023/10/23 06:52:56;;;;;;;8.00;4.50;;;409.70;2355.20;;;;;;5052762;28;20112;-64
2023/10/23 06:55:24;;;;;;;11.13;5.38;;;409.60;2355.20;;;;;;5052486;28;20021;-62
2023/10/23 06:57:50;;;;;;;9.98;5.63;;;409.70;2355.20;;;;;;5052293;28;20036;-65
2023/10/23 07:00:16;;;;;;;131.25;75.53;;;409.90;2355.20;;;;;;5052285;28;20025;-59
2023/10/23 07:02:42;;;;;;;70.78;42.33;;;410.00;2355.20;;;;;;5052453;28;20044;-63
2023/10/23 07:05:07;;;;;;;57.97;38.85;;;410.10;2355.20;;;;;;5052456;28;20017;-60
2023/10/23 07:07:33;;;;;;;68.63;46.30;;;410.30;2355.20;;;;;;5047415;28;20494;-61
2023/10/23 07:09:59;;;;;;;25.20;15.98;;;435.20;2355.20;;;;;;5034829;28;20022;-74
2023/10/23 07:12:26;;;;;;;11.80;8.45;;;435.50;2355.20;;;;;;5035634;28;20394;-71
2023/10/23 07:14:51;;;;;;;11.80;6.93;;;486.40;2380.80;;;;;;5048007;28;20041;-72
2023/10/23 07:17:18;;;;;;;18.55;16.60;;;486.60;2380.80;;;;;;5051728;28;20025;-72
2023/10/23 07:19:43;;;;;;;11.48;10.27;;;512.20;2380.80;;;;;;5051480;28;20168;-72
2023/10/23 07:22:09;;;;;;;9.27;6.25;;;563.90;2432.00;;;;;;5052181;28;20132;-68
2023/10/23 07:24:35;;;;;;;7.82;5.53;;;614.90;2432.00;;;;;;5047288;28;20029;-72
2023/10/23 07:27:00;;;;;;;7.78;4.97;;;615.30;2329.60;;;;;;5045749;28;20029;-70
2023/10/23 07:29:26;;;;;;;8.98;4.38;;;666.40;2176.00;;;;;;5051280;28;20040;-70
2023/10/23 07:31:52;;;;;;;25.33;22.92;;;717.10;2022.40;;;;;;5046537;28;20022;-68
2023/10/23 07:34:17;;;;;;;16.08;14.35;;;743.20;1894.40;;;;;;5031994;28;20371;-70
2023/10/23 07:36:43;;;;;;;8.60;7.47;;;768.20;1817.60;;;;;;5033092;28;20483;-68
2023/10/23 07:39:09;;;;;;;11.00;9.20;;;768.30;1792.00;;;;;;5045114;28;20168;-69
2023/10/23 07:41:35;;;;;;;8.27;6.07;;;768.10;1792.00;;;;;;5050090;28;20471;-69
2023/10/23 07:44:00;;;;;;;7.97;5.72;;;743.30;1766.40;;;;;;5037839;28;20037;-71
2023/10/23 07:46:26;;;;;;;8.48;5.82;;;793.80;1740.80;;;;;;5035977;28;20025;-71
2023/10/23 07:48:52;;;;;;;6.93;5.80;;;819.30;1664.00;;;;;;5049751;28;20108;-70
2023/10/23 07:51:17;;;;;;;6.90;5.22;;;819.50;1664.00;;;;;;5031942;28;20045;-68
2023/10/23 07:53:43;;;;;;;7.68;5.75;;;845.00;1612.80;;;;;;5044688;28;20351;-71
2023/10/23 07:56:09;;;;;;;6.03;5.07;;;845.40;1561.60;;;;;;5039746;28;20067;-69
2023/10/23 07:58:35;;;;;;;7.45;5.03;;;870.70;1536.00;;;;;;5049134;28;20036;-72
2023/10/23 08:01:05;;;;;;;7.95;4.78;;;871.30;1484.80;;;;;;5044284;28;20033;-70
2023/10/23 08:03:31;;;;;;;8.35;6.50;;;896.20;1459.20;;;;;;5043771;28;20120;-70
2023/10/23 08:05:59;;;;;;;9.15;5.50;;;896.90;1408.00;;;;;;5045884;28;20025;-71
2023/10/23 08:08:24;;;;;;;8.23;7.35;;;921.90;1433.60;;;;;;5044158;28;20021;-73
2023/10/23 08:10:50;;;;;;;8.00;5.55;;;896.90;1408.00;;;;;;5040687;28;20075;-74
2023/10/23 08:13:16;;;;;;;8.57;6.35;;;845.70;1484.80;;;;;;5039881;28;20108;-71
2023/10/23 08:15:43;;;;;;;13.30;6.70;;;819.90;1536.00;;;;;;5045643;28;20071;-70
2023/10/23 08:18:08;;;;;;;6.90;5.95;;;845.00;1536.00;;;;;;5037712;28;20033;-71
2023/10/23 08:20:37;;;;;;;9.68;6.88;;;845.60;1484.80;;;;;;5040580;28;20136;-69
2023/10/23 08:23:03;;;;;;;7.88;6.90;;;871.30;1459.20;;;;;;5042208;28;20032;-72
2023/10/23 08:25:28;;;;;;;7.63;5.88;;;896.90;1382.40;;;;;;5045767;28;20025;-72
2023/10/23 08:27:54;;;;;;;9.27;6.53;;;921.90;1408.00;;;;;;5047200;28;20021;-71
2023/10/23 08:30:20;;;;;;;12.98;8.25;;;947.60;1331.20;;;;;;5041294;28;20021;-72
2023/10/23 08:32:45;;;;;;;9.07;7.35;;;921.80;1382.40;;;;;;5050481;28;20033;-70
2023/10/23 08:35:11;;;;;;;11.02;7.35;;;896.70;1382.40;;;;;;5039332;28;20045;-72
2023/10/23 08:37:37;;;;;;;9.35;6.63;;;896.60;1356.80;;;;;;5044992;28;20036;-74
2023/10/23 08:40:06;;;;;;;10.02;7.47;;;922.40;1356.80;;;;;;5045358;28;20027;-73
2023/10/23 08:42:35;;;;;;;12.35;5.85;;;922.40;1331.20;;;;;;5037661;28;20037;-69
2023/10/23 08:45:02;;;;;;;7.88;6.65;;;896.50;1356.80;;;;;;5050720;28;20071;-70
2023/10/23 08:47:28;;;;;;;12.63;5.72;;;922.00;1356.80;;;;;;5049332;28;20037;-72
2023/10/23 08:49:56;;;;;;;9.90;6.18;;;896.50;1356.80;;;;;;5046284;28;20538;-69
2023/10/23 08:52:25;;;;;;;11.40;6.05;;;896.50;1356.80;;;;;;5029281;28;20038;-72
2023/10/23 08:54:53;;;;;;;8.25;5.88;;;896.30;1382.40;;;;;;5038274;28;20031;-72
2023/10/23 08:57:20;;;;;;;8.02;6.75;;;870.80;1433.60;;;;;;5050181;28;20040;-72
2023/10/23 08:59:46;;;;;;;8.15;6.22;;;845.20;1459.20;;;;;;5050262;28;20116;-69
2023/10/23 09:02:12;;;;;;;12.70;8.02;;;819.70;1484.80;;;;;;5049548;28;20111;-70
2023/10/23 09:04:37;;;;;;;10.30;7.18;;;819.20;1510.40;;;;;;5050205;28;20463;-69
2023/10/23 09:07:03;;;;;;;10.43;7.18;;;768.40;1587.20;;;;;;5049630;28;20434;-68
2023/10/23 09:09:30;;;;;;;9.38;6.05;;;742.90;1638.40;;;;;;5050275;28;20129;-68
2023/10/23 09:11:57;;;;;;;14.50;6.35;;;742.40;1664.00;;;;;;5048879;28;20025;-71
2023/10/23 09:14:23;;;;;;;11.40;6.30;;;716.80;1715.20;;;;;;5050023;28;20028;-69
2023/10/23 09:16:51;;;;;;;13.82;7.35;;;691.90;1715.20;;;;;;5049905;28;20029;-68
2023/10/23 09:19:27;;;;;;;16.73;9.23;;;691.30;1766.40;;;;;;5049898;28;20045;-68
2023/10/23 09:21:56;;;;;;;19.63;8.23;;;666.30;1792.00;;;;;;5033847;28;20442;-68
2023/10/23 09:24:23;;;;;;;17.25;7.88;;;665.70;1843.20;;;;;;5044702;28;20032;-68
2023/10/23 09:26:52;;;;;;;15.52;7.95;;;665.70;1843.20;;;;;;5049482;28;20105;-67
2023/10/23 09:29:22;;;;;;;21.10;7.60;;;665.70;1868.80;;;;;;5049665;28;20558;-70
2023/10/23 09:31:49;;;;;;;21.92;7.60;;;640.60;1868.80;;;;;;5049095;28;20669;-70
2023/10/23 09:34:17;;;;;;;15.20;7.45;;;640.60;1894.40;;;;;;5049789;28;20025;-70
2023/10/23 09:36:45;;;;;;;15.77;6.03;;;640.20;1894.40;;;;;;5049238;28;20111;-71
2023/10/23 09:39:11;;;;;;;10.55;6.35;;;640.70;1868.80;;;;;;5049216;28;20044;-70
2023/10/23 09:41:37;;;;;;;15.18;6.22;;;640.30;1894.40;;;;;;5049498;28;20415;-69
2023/10/23 09:44:04;;;;;;;15.98;6.72;;;640.00;1920.00;;;;;;5048638;28;20111;-68
2023/10/23 09:46:31;;;;;;;13.88;5.68;;;640.50;1894.40;;;;;;5048988;28;20040;-69
2023/10/23 09:49:03;;;;;;;14.43;5.93;;;640.10;1920.00;;;;;;5048599;28;20053;-70
2023/10/23 09:51:42;;;;;;;12.13;6.60;;;615.20;1971.20;;;;;;5045683;28;20025;-67
2023/10/23 09:54:19;;;;;;;13.25;5.90;;;640.20;1945.60;;;;;;5025217;28;20032;-67
2023/10/23 09:56:54;;;;;;;9.65;4.95;;;640.30;1945.60;;;;;;5032518;28;20067;-68
2023/10/23 09:59:34;;;;;;;9.70;5.38;;;640.30;1971.20;;;;;;5032926;28;20078;-68
2023/10/23 10:02:00;;;;;;;11.18;6.10;;;615.00;1996.80;;;;;;5016999;28;20579;-68
2023/10/23 10:04:55;;;;;;;12.50;5.25;;;615.20;1996.80;;;;;;5027417;28;20026;-67
2023/10/23 10:07:36;;;;;;;9.43;5.22;;;640.20;1996.80;;;;;;5027912;28;20033;-68
2023/10/23 10:10:05;;;;;;;12.00;5.30;;;640.00;2022.40;;;;;;5027668;28;20055;-67
2023/10/23 10:12:37;;;;;;;14.77;5.57;;;615.20;2022.40;;;;;;5027494;28;20036;-67
2023/10/23 10:15:04;;;;;;;9.60;5.50;;;640.00;1996.80;;;;;;5016111;28;20079;-69
2023/10/23 10:17:30;;;;;;;9.25;5.13;;;640.00;1996.80;;;;;;5027097;28;20037;-69
2023/10/23 10:19:59;;;;;;;9.77;5.10;;;614.90;2048.00;;;;;;5027177;28;20046;-68
2023/10/23 10:22:30;;;;;;;13.18;5.03;;;615.20;2022.40;;;;;;5029002;28;20139;-72
2023/10/23 10:24:57;;;;;;;11.32;5.78;;;640.00;1996.80;;;;;;5047435;28;20064;-68
2023/10/23 10:27:24;;;;;;;9.90;5.35;;;615.10;2022.40;;;;;;5038907;28;20553;-69
2023/10/23 10:29:51;;;;;;;12.80;6.13;;;615.10;2048.00;;;;;;5028800;28;20063;-69
2023/10/23 10:32:17;;;;;;;12.93;5.63;;;615.20;2048.00;;;;;;5048418;28;20043;-68
2023/10/23 10:34:46;;;;;;;15.43;6.82;;;615.20;2048.00;;;;;;5048688;28;20025;-69
2023/10/23 10:37:13;;;;;;;13.00;6.75;;;614.90;2073.60;;;;;;5047418;28;20021;-68
2023/10/23 10:39:50;;;;;;;10.73;5.88;;;614.80;2073.60;;;;;;5048991;28;20107;-67
2023/10/23 10:42:22;;;;;;;11.13;6.07;;;614.70;2073.60;;;;;;5045606;28;20037;-66
2023/10/23 10:45:06;;;;;;;8.38;5.70;;;614.80;2073.60;;;;;;5047924;28;20029;-69
2023/10/23 10:47:46;;;;;;;11.00;6.80;;;614.80;2073.60;;;;;;5046522;28;20025;-68
2023/10/23 10:50:29;;;;;;;9.52;5.75;;;614.80;2073.60;;;;;;5037551;28;20033;-68
2023/10/23 10:53:00;;;;;;;9.88;5.45;;;614.60;2073.60;;;;;;5029837;28;20097;-67
2023/10/23 10:55:26;;;;;;;11.77;5.82;;;614.80;2099.20;;;;;;5032494;28;20021;-70
2023/10/23 10:57:53;;;;;;;7.93;5.65;;;614.80;2073.60;;;;;;5039906;28;20124;-69
2023/10/23 11:00:18;;;;;;;7.60;5.00;;;614.80;2073.60;;;;;;5040653;28;20415;-67
2023/10/23 11:02:44;;;;;;;11.98;5.95;;;614.80;2073.60;;;;;;5028356;28;20073;-69
2023/10/23 11:05:11;;;;;;;7.78;5.07;;;614.80;2073.60;;;;;;5041763;28;20100;-70
2023/10/23 11:07:37;;;;;;;11.43;5.70;;;614.90;2022.40;;;;;;5029968;28;20485;-69
2023/10/23 11:10:05;;;;;;;9.65;4.40;;;614.90;2048.00;;;;;;5031287;28;20021;-68
2023/10/23 11:12:31;;;;;;;6.82;4.60;;;615.10;2048.00;;;;;;5030107;28;20032;-68
2023/10/23 11:14:56;;;;;;;7.30;4.88;;;615.10;2048.00;;;;;;5031996;28;20599;-65
2023/10/23 11:17:23;;;;;;;6.40;4.22;;;615.10;2022.40;;;;;;5017039;28;20108;-66
2023/10/23 11:19:49;;;;;;;11.27;5.30;;;614.90;2022.40;;;;;;5027320;28;20057;-65
2023/10/23 11:22:18;;;;;;;10.88;4.85;;;614.90;2048.00;;;;;;5026022;28;20117;-65
2023/10/23 11:24:45;;;;;;;8.35;6.40;;;614.70;2048.00;;;;;;5027338;28;20068;-69
2023/10/23 11:27:11;;;;;;;12.35;6.18;;;614.90;2048.00;;;;;;5039665;28;20025;-66
2023/10/23 11:29:38;;;;;;;8.88;5.65;;;614.80;2048.00;;;;;;5035352;28;20039;-67
2023/10/23 11:32:08;;;;;;;10.70;5.45;;;614.60;2073.60;;;;;;5046406;28;20060;-65
2023/10/23 11:34:37;;;;;;;7.82;4.72;;;614.70;2073.60;;;;;;5037273;28;20040;-66
2023/10/23 11:37:07;;;;;;;9.35;4.80;;;614.90;2048.00;;;;;;5031653;28;20025;-65
2023/10/23 11:39:35;;;;;;;8.57;5.28;;;614.90;2048.00;;;;;;5041404;28;20543;-65
2023/10/23 11:42:02;;;;;;;9.43;6.35;;;615.00;2048.00;;;;;;5050362;28;20041;-65
2023/10/23 11:44:30;;;;;;;9.88;5.18;;;615.10;2048.00;;;;;;5043336;28;20056;-65
2023/10/23 11:47:01;;;;;;;12.80;5.97;;;615.00;2048.00;;;;;;5037776;28;20028;-66
2023/10/23 11:49:27;;;;;;;14.10;6.00;;;615.20;2022.40;;;;;;5040676;28;20051;-65
2023/10/23 11:51:55;;;;;;;10.90;5.70;;;615.20;1996.80;;;;;;5047619;28;20462;-68
2023/10/23 11:54:23;;;;;;;8.30;5.47;;;615.30;2022.40;;;;;;5049503;28;20046;-65
2023/10/23 11:56:49;;;;;;;8.73;5.10;;;615.20;2022.40;;;;;;5050047;28;20498;-67
2023/10/23 11:59:20;;;;;;;8.20;5.97;;;615.30;2022.40;;;;;;5049996;28;20025;-65
2023/10/23 12:01:47;;;;;;;6.30;5.65;;;615.20;2022.40;;;;;;5049260;28;20041;-65
2023/10/23 12:04:14;;;;;;;8.50;5.57;;;615.10;2048.00;;;;;;5049898;28;20049;-66
2023/10/23 12:06:40;;;;;;;9.40;5.18;;;615.20;2022.40;;;;;;5051920;28;20025;-64
2023/10/23 12:09:07;;;;;;;13.05;6.65;;;615.20;2022.40;;;;;;5051071;28;20021;-65
2023/10/23 12:11:34;;;;;;;9.05;6.22;;;615.20;2048.00;;;;;;5044732;28;20072;-67